Time;durP1;ratioP1;P1;durP2;ratioP2;P2;SDS_P1;SDS_P2;PMS_P1;PMS_P2;Temp;Humidity;BMP_temperature;BMP_pressure;BME280_temperature;BME280_humidity;BME280_pressure;Samples;Min_cycle;Max_cycle;Signal;HPM_P1;HPM_P2
2022/04/07 00:01:22;;;;;;;;;1.00;1.00;;;;;12.49;100.00;99707.66;5017281;28;45241;-78
2022/04/07 00:03:48;;;;;;;;;0.75;0.75;;;;;12.49;100.00;99699.88;5019905;28;45572;-78
2022/04/07 00:06:13;;;;;;;;;2.00;1.00;;;;;12.51;100.00;99682.63;5002417;28;45429;-84
2022/04/07 00:08:40;;;;;;;;;1.50;1.00;;;;;12.50;100.00;99680.88;5020898;28;45255;-84
2022/04/07 00:11:07;;;;;;;;;1.25;1.00;;;;;12.51;100.00;99678.31;5016921;28;45452;-85
2022/04/07 00:13:33;;;;;;;;;0.00;0.00;;;;;12.54;100.00;99677.50;4999441;28;45609;-82
2022/04/07 00:16:00;;;;;;;;;0.00;0.00;;;;;12.56;100.00;99675.81;5017150;28;45424;-83
2022/04/07 00:18:29;;;;;;;;;1.00;0.00;;;;;12.54;100.00;99686.13;5018835;28;45816;-79
2022/04/07 00:20:55;;;;;;;;;0.75;0.00;;;;;12.54;100.00;99693.94;5018372;28;46171;-82
2022/04/07 00:23:21;;;;;;;;;1.00;1.00;;;;;12.53;100.00;99670.53;4998830;28;45889;-83
2022/04/07 00:25:48;;;;;;;;;1.75;0.25;;;;;12.56;100.00;99665.41;5016914;28;45582;-77
2022/04/07 00:28:14;;;;;;;;;1.50;1.00;;;;;12.57;100.00;99663.69;5016487;28;45499;-76
2022/04/07 00:30:40;;;;;;;;;0.00;0.00;;;;;12.57;100.00;99659.38;5016664;28;45454;-80
2022/04/07 00:33:10;;;;;;;;;1.25;1.00;;;;;12.58;100.00;99653.31;5016152;28;45457;-80
2022/04/07 00:35:36;;;;;;;;;0.75;0.50;;;;;12.59;100.00;99667.19;5016345;28;45360;-83
2022/04/07 00:38:03;;;;;;;;;1.75;0.25;;;;;12.56;100.00;99687.88;5016629;28;45485;-85
2022/04/07 00:40:29;;;;;;;;;1.00;0.00;;;;;12.54;100.00;99647.19;5016513;28;45343;-85
2022/04/07 00:42:56;;;;;;;;;0.00;0.00;;;;;12.55;100.00;99655.88;5020141;28;45535;-83
2022/04/07 00:45:23;;;;;;;;;0.50;0.50;;;;;12.58;100.00;99652.44;5016665;28;45431;-85
2022/04/07 00:47:50;;;;;;;;;1.50;0.00;;;;;12.59;100.00;99647.28;5024139;28;45619;-85
2022/04/07 00:50:18;;;;;;;;;1.00;1.00;;;;;12.59;100.00;99608.31;5032192;28;45936;-85
2022/04/07 00:52:52;;;;;;;;;0.00;0.00;;;;;12.57;100.00;99615.25;5030324;28;45729;-83
2022/04/07 00:55:19;;;;;;;;;1.00;0.50;;;;;12.58;100.00;99603.13;5018214;28;45521;-84
2022/04/07 00:57:46;;;;;;;;;2.00;1.00;;;;;12.59;100.00;99599.69;5033072;28;45606;-78
2022/04/07 01:00:13;;;;;;;;;1.00;1.00;;;;;12.58;100.00;99578.00;5017195;28;45392;-85
2022/04/07 01:02:40;;;;;;;;;1.00;1.00;;;;;12.58;100.00;99583.19;5023194;28;45234;-78
2022/04/07 01:05:09;;;;;;;;;1.00;1.00;;;;;12.56;100.00;99574.53;5015844;28;45428;-77
2022/04/07 01:07:39;;;;;;;;;2.75;1.00;;;;;12.56;100.00;99558.97;5016335;28;45492;-78
2022/04/07 01:10:09;;;;;;;;;1.25;1.00;;;;;12.59;100.00;99550.34;5015500;28;45417;-81
2022/04/07 01:12:36;;;;;;;;;2.00;1.00;;;;;12.57;100.00;99550.34;5015898;28;45851;-79
2022/04/07 01:15:04;;;;;;;;;1.25;1.00;;;;;12.58;100.00;99553.78;4998044;28;45508;-78
2022/04/07 01:17:31;;;;;;;;;3.00;1.00;;;;;12.57;100.00;99542.53;5016382;28;45573;-84
2022/04/07 01:19:57;;;;;;;;;1.00;0.00;;;;;12.53;100.00;99535.53;5015710;28;45337;-85
2022/04/07 01:22:23;;;;;;;;;2.00;0.75;;;;;12.57;100.00;99568.50;5017599;28;45343;-86
2022/04/07 01:24:49;;;;;;;;;2.00;2.00;;;;;12.54;100.00;99538.16;5020046;28;45530;-85
2022/04/07 01:27:17;;;;;;;;;0.00;0.00;;;;;12.54;100.00;99548.53;5018642;28;45477;-83
2022/04/07 01:29:44;;;;;;;;;3.50;1.00;;;;;12.49;100.00;99551.91;5030147;28;46153;-84
2022/04/07 01:32:12;;;;;;;;;1.50;0.00;;;;;12.48;100.00;99550.16;5034330;28;45714;-83
2022/04/07 01:34:39;;;;;;;;;1.75;1.00;;;;;12.48;100.00;99540.66;5020890;28;45281;-84
2022/04/07 01:37:07;;;;;;;;;5.75;1.00;;;;;12.49;100.00;99538.91;4997759;28;45461;-84
2022/04/07 01:39:33;;;;;;;;;2.00;1.00;;;;;12.47;100.00;99525.06;5015610;28;45358;-85
2022/04/07 01:41:59;;;;;;;;;2.00;1.00;;;;;12.41;100.00;99514.56;5015634;28;45759;-85
2022/04/07 01:44:27;;;;;;;;;2.00;1.00;;;;;12.41;100.00;99528.44;5018188;28;45420;-85
2022/04/07 01:46:54;;;;;;;;;1.25;1.00;;;;;12.44;100.00;99533.66;5035517;28;45403;-85
2022/04/07 01:49:22;;;;;;;;;2.00;0.00;;;;;12.43;100.00;99505.09;5007529;28;47597;-84
2022/04/07 01:51:48;;;;;;;;;1.25;0.00;;;;;12.44;100.00;99517.22;5016782;28;45747;-86
2022/04/07 01:54:15;;;;;;;;;2.50;1.00;;;;;12.43;100.00;99498.16;4998110;28;45205;-86
2022/04/07 01:56:43;;;;;;;;;1.00;1.00;;;;;12.41;100.00;99522.34;5029038;28;45479;-82
2022/04/07 01:59:10;;;;;;;;;0.00;0.00;;;;;12.37;100.00;99506.72;5025686;28;46046;-81
2022/04/07 02:01:36;;;;;;;;;1.25;1.00;;;;;12.38;100.00;99497.22;5020822;28;46317;-78
2022/04/07 02:04:02;;;;;;;;;1.00;0.00;;;;;12.42;100.00;99503.34;5037005;28;45522;-81
2022/04/07 02:06:28;;;;;;;;;1.75;1.00;;;;;12.41;100.00;99537.94;5022306;28;45408;-79
2022/04/07 02:08:54;;;;;;;;;1.00;1.00;;;;;12.35;100.00;99500.66;5018749;28;45302;-80
2022/04/07 02:11:22;;;;;;;;;0.25;0.25;;;;;12.31;100.00;99496.25;5022608;28;45520;-81
2022/04/07 02:13:48;;;;;;;;;1.25;1.00;;;;;12.31;100.00;99501.44;5036638;28;45384;-79
2022/04/07 02:16:14;;;;;;;;;1.25;1.00;;;;;12.31;100.00;99487.63;5020722;28;45574;-83
2022/04/07 02:18:39;;;;;;;;;1.50;1.50;;;;;12.31;100.00;99503.19;5028865;28;45297;-84
2022/04/07 02:21:06;;;;;;;;;0.50;0.00;;;;;12.31;100.00;99498.84;5030634;28;45278;-79
2022/04/07 02:23:40;;;;;;;;;0.50;0.00;;;;;12.31;100.00;99498.00;5003352;28;45401;-85
2022/04/07 02:26:12;;;;;;;;;0.50;0.00;;;;;12.34;100.00;99483.34;5018618;28;45560;-86
2022/04/07 02:28:39;;;;;;;;;1.00;1.00;;;;;12.35;100.00;99466.03;5029224;28;45388;-85
2022/04/07 02:31:05;;;;;;;;;1.50;0.75;;;;;12.33;100.00;99458.22;5009240;28;45841;-85
2022/04/07 02:33:31;;;;;;;;;1.75;1.00;;;;;12.32;100.00;99458.19;5027148;28;45402;-86
2022/04/07 02:35:57;;;;;;;;;4.00;1.00;;;;;12.30;100.00;99472.88;5021305;28;45453;-83
2022/04/07 02:38:23;;;;;;;;;1.00;1.00;;;;;12.27;100.00;99437.34;5037297;28;46220;-83
2022/04/07 02:40:48;;;;;;;;;1.00;1.00;;;;;12.26;100.00;99437.34;5022696;28;45381;-86
2022/04/07 02:43:14;;;;;;;;;1.00;1.00;;;;;12.27;100.00;99413.13;5026766;28;45608;-85
2022/04/07 02:45:39;;;;;;;;;1.25;0.25;;;;;12.27;100.00;99418.34;5020783;28;45487;-83
2022/04/07 02:48:05;;;;;;;;;1.00;1.00;;;;;12.28;100.00;99407.97;5027864;28;45476;-83
2022/04/07 02:50:31;;;;;;;;;1.75;1.00;;;;;12.29;100.00;99412.31;5018308;28;45516;-84
2022/04/07 02:52:56;;;;;;;;;2.50;1.25;;;;;12.28;100.00;99418.34;5017825;28;45406;-82
2022/04/07 02:55:22;;;;;;;;;2.00;1.00;;;;;12.31;100.00;99395.03;5018927;28;45317;-83
2022/04/07 02:57:47;;;;;;;;;3.50;1.00;;;;;12.33;100.00;99389.88;5017988;28;45431;-84
2022/04/07 03:00:14;;;;;;;;;3.25;1.00;;;;;12.31;100.00;99381.22;5017589;28;45282;-84
2022/04/07 03:02:40;;;;;;;;;1.00;1.00;;;;;12.32;100.00;99381.22;5016969;28;45399;-81
2022/04/07 03:05:06;;;;;;;;;2.25;1.00;;;;;12.35;100.00;99382.97;5019951;28;45330;-80
2022/04/07 03:07:32;;;;;;;;;3.00;1.00;;;;;12.34;100.00;99387.31;5049723;28;47623;-81
2022/04/07 03:09:57;;;;;;;;;2.00;0.00;;;;;12.32;100.00;99363.06;5017794;28;45254;-83
2022/04/07 03:12:23;;;;;;;;;2.75;2.00;;;;;12.35;100.00;99360.50;5018339;28;45343;-82
2022/04/07 03:14:49;;;;;;;;;1.00;1.00;;;;;12.36;100.00;99359.63;5018583;28;45291;-84
2022/04/07 03:17:14;;;;;;;;;2.00;1.00;;;;;12.37;100.00;99338.03;5017297;28;46059;-76
2022/04/07 03:19:40;;;;;;;;;0.50;0.50;;;;;12.37;100.00;99321.59;5017612;28;45424;-78
2022/04/07 03:22:06;;;;;;;;;2.00;0.00;;;;;12.38;100.00;99328.53;5017464;28;45559;-76
2022/04/07 03:24:32;;;;;;;;;1.00;1.00;;;;;12.39;100.00;99310.38;5017607;28;45329;-77
2022/04/07 03:26:58;;;;;;;;;3.00;2.00;;;;;12.41;100.00;99318.19;5017262;28;45330;-76
2022/04/07 03:29:23;;;;;;;;;1.50;1.50;;;;;12.45;100.00;99314.75;5017865;28;45459;-78
2022/04/07 03:31:49;;;;;;;;;0.75;0.25;;;;;12.45;100.00;99300.94;5017483;28;45967;-82
2022/04/07 03:34:15;;;;;;;;;1.00;1.00;;;;;12.49;100.00;99305.28;5017442;28;45427;-81
2022/04/07 03:36:41;;;;;;;;;1.25;0.00;;;;;12.49;100.00;99281.94;5017180;28;45995;-81
2022/04/07 03:39:07;;;;;;;;;1.00;1.00;;;;;12.51;100.00;99275.94;5017250;28;45412;-80
2022/04/07 03:41:32;;;;;;;;;3.00;1.00;;;;;12.52;100.00;99277.66;5033001;28;45277;-80
2022/04/07 03:43:58;;;;;;;;;1.00;1.00;;;;;12.50;100.00;99266.38;5037296;28;45278;-82
2022/04/07 03:46:24;;;;;;;;;1.00;1.00;;;;;12.53;100.00;99256.03;5052651;28;46890;-85
2022/04/07 03:48:51;;;;;;;;;1.00;1.00;;;;;12.56;100.00;99244.81;5027736;28;47051;-83
2022/04/07 03:51:17;;;;;;;;;1.00;1.00;;;;;12.56;100.00;99226.66;5019883;28;45388;-85
2022/04/07 03:53:44;;;;;;;;;1.00;0.25;;;;;12.56;100.00;99217.97;5017911;28;45316;-85
2022/04/07 03:56:10;;;;;;;;;1.00;1.00;;;;;12.57;100.00;99210.22;5016898;28;46052;-85
2022/04/07 03:58:37;;;;;;;;;0.25;0.25;;;;;12.57;100.00;99210.22;5015836;28;45255;-83
2022/04/07 04:01:03;;;;;;;;;2.50;1.50;;;;;12.61;100.00;99203.34;5017095;28;45306;-85
2022/04/07 04:03:29;;;;;;;;;0.75;0.75;;;;;12.62;100.00;99207.69;5017687;28;45332;-86
2022/04/07 04:05:55;;;;;;;;;2.75;2.00;;;;;12.61;100.00;99211.13;5020682;28;45246;-80
2022/04/07 04:08:20;;;;;;;;;1.25;1.00;;;;;12.57;100.00;99194.66;4999981;28;45617;-82
2022/04/07 04:10:46;;;;;;;;;3.00;1.25;;;;;12.60;100.00;99176.47;5017105;28;45377;-83
2022/04/07 04:13:12;;;;;;;;;1.25;1.25;;;;;12.61;100.00;99182.56;4999283;28;45622;-84
2022/04/07 04:15:37;;;;;;;;;1.00;1.00;;;;;12.62;100.00;99163.53;5017503;28;46130;-84
2022/04/07 04:18:03;;;;;;;;;3.25;2.00;;;;;12.59;100.00;99177.34;5016875;28;45323;-80
2022/04/07 04:20:28;;;;;;;;;3.50;1.00;;;;;12.58;100.00;99185.97;5000257;28;45453;-80
2022/04/07 04:22:54;;;;;;;;;0.75;0.75;;;;;12.58;100.00;99169.53;5018117;28;45428;-77
2022/04/07 04:25:20;;;;;;;;;2.50;2.00;;;;;12.56;100.00;99164.34;5016781;28;45660;-81
2022/04/07 04:27:46;;;;;;;;;1.00;1.00;;;;;12.55;100.00;99165.19;5018266;28;45752;-85
2022/04/07 04:30:18;;;;;;;;;1.00;1.00;;;;;12.55;100.00;99172.97;5019960;28;45428;-76
2022/04/07 04:32:44;;;;;;;;;1.00;0.00;;;;;12.58;100.00;99175.59;5022850;28;45458;-86
2022/04/07 04:35:10;;;;;;;;;0.50;0.50;;;;;12.61;100.00;99160.06;5018547;28;45350;-86
2022/04/07 04:37:37;;;;;;;;;0.75;0.25;;;;;12.59;100.00;99179.94;5000467;28;45731;-79
2022/04/07 04:40:05;;;;;;;;;1.00;1.00;;;;;12.57;100.00;99160.91;4989319;28;45388;-86
2022/04/07 04:42:31;;;;;;;;;3.75;1.00;;;;;12.60;100.00;99141.88;5005408;28;45253;-84
2022/04/07 04:44:57;;;;;;;;;1.25;1.25;;;;;12.62;100.00;99158.34;5034600;28;45525;-85
2022/04/07 04:47:22;;;;;;;;;1.00;1.00;;;;;12.61;100.00;99146.22;5016407;28;45788;-88
2022/04/07 04:49:48;;;;;;;;;1.00;1.00;;;;;12.58;100.00;99131.44;5019633;28;45385;-85
2022/04/07 04:52:14;;;;;;;;;3.25;1.50;;;;;12.60;100.00;99145.31;5015655;28;45480;-85
2022/04/07 04:54:40;;;;;;;;;0.00;0.00;;;;;12.57;100.00;99134.94;5016159;28;45451;-86
2022/04/07 04:57:06;;;;;;;;;1.75;1.00;;;;;12.53;100.00;99125.38;5016376;28;45867;-87
2022/04/07 04:59:32;;;;;;;;;0.75;0.75;;;;;12.55;100.00;99131.44;5002590;28;45357;-85
2022/04/07 05:01:58;;;;;;;;;2.25;0.50;;;;;12.58;100.00;99140.97;5016704;28;45443;-85
2022/04/07 05:04:23;;;;;;;;;3.00;1.00;;;;;12.60;100.00;99128.91;5016370;28;45342;-86
2022/04/07 05:06:51;;;;;;;;;3.50;1.00;;;;;12.63;100.00;99121.13;4996155;28;45403;-86
2022/04/07 05:09:17;;;;;;;;;4.00;1.00;;;;;12.62;100.00;99134.97;4997097;28;45419;-87
2022/04/07 05:11:43;;;;;;;;;5.00;2.00;;;;;12.65;100.00;99124.59;5010457;28;45647;-87
2022/04/07 05:14:09;;;;;;;;;0.25;0.25;;;;;12.66;100.00;99128.94;5015224;28;46360;-85
2022/04/07 05:16:35;;;;;;;;;1.50;1.00;;;;;12.69;100.00;99132.44;5015481;28;45415;-86
2022/04/07 05:19:01;;;;;;;;;1.50;1.00;;;;;12.72;100.00;99115.13;5015730;28;45350;-83
2022/04/07 05:21:26;;;;;;;;;2.00;1.00;;;;;12.76;100.00;99109.97;4998113;28;45282;-82
2022/04/07 05:23:52;;;;;;;;;3.00;1.25;;;;;12.77;100.00;99097.88;5020874;28;46112;-87
2022/04/07 05:26:18;;;;;;;;;2.00;1.50;;;;;12.83;100.00;99093.63;5033131;28;45328;-86
2022/04/07 05:28:44;;;;;;;;;1.00;1.00;;;;;12.83;100.00;99082.34;5017263;28;45213;-85
2022/04/07 05:31:11;;;;;;;;;2.00;2.00;;;;;12.85;100.00;99098.81;4999423;28;45367;-79
2022/04/07 05:33:37;;;;;;;;;1.75;1.75;;;;;12.88;100.00;99101.44;5000932;28;46441;-86
2022/04/07 05:36:03;;;;;;;;;4.50;1.50;;;;;12.90;100.00;99070.28;5018868;28;45403;-87
2022/04/07 05:38:29;;;;;;;;;3.00;2.00;;;;;12.91;100.00;99064.22;5019457;28;45303;-86
2022/04/07 05:40:56;;;;;;;;;1.25;0.00;;;;;12.91;100.00;99066.81;5001621;28;45364;-82
2022/04/07 05:43:22;;;;;;;;;2.75;1.00;;;;;12.92;100.00;99052.97;5018556;28;46482;-86
2022/04/07 05:45:50;;;;;;;;;1.75;1.00;;;;;12.94;100.00;99053.84;5023233;28;45274;-84
2022/04/07 05:48:19;;;;;;;;;1.00;1.00;;;;;12.93;100.00;99060.75;5001303;28;46486;-79
2022/04/07 05:50:45;;;;;;;;;1.25;0.00;;;;;12.92;100.00;99068.56;5025413;28;45286;-89
2022/04/07 05:53:11;;;;;;;;;2.00;0.75;;;;;12.95;100.00;99053.00;5037981;28;45414;-86
2022/04/07 05:55:37;;;;;;;;;3.50;1.00;;;;;12.95;100.00;99058.19;5029373;28;45346;-84
2022/04/07 05:58:05;;;;;;;;;0.00;0.00;;;;;12.92;100.00;99068.56;5028942;28;45440;-82
2022/04/07 06:00:31;;;;;;;;;0.50;0.50;;;;;12.93;100.00;99076.34;5000312;28;45654;-86
2022/04/07 06:02:57;;;;;;;;;0.00;0.00;;;;;12.95;100.00;99078.97;5023508;28;46433;-84
2022/04/07 06:05:22;;;;;;;;;1.00;1.00;;;;;12.97;100.00;99056.47;5027441;28;45343;-84
2022/04/07 06:07:48;;;;;;;;;1.25;0.25;;;;;12.99;100.00;99046.94;5018953;28;45556;-89
2022/04/07 06:10:14;;;;;;;;;2.00;1.00;;;;;13.04;100.00;99053.06;5025865;28;45452;-93
2022/04/07 06:12:43;;;;;;;;;2.75;1.00;;;;;13.06;100.00;99043.56;5027412;28;46113;-88
2022/04/07 06:15:10;;;;;;;;;0.75;0.75;;;;;13.10;100.00;99040.09;5032032;28;45623;-86
2022/04/07 06:17:56;;;;;;;;;0.50;0.00;;;;;13.08;100.00;99041.81;5023043;28;44762;-89
2022/04/07 06:20:22;;;;;;;;;3.00;0.50;;;;;13.07;100.00;99047.00;5024514;28;45479;-87
2022/04/07 06:22:48;;;;;;;;;0.00;0.00;;;;;13.01;100.00;99007.13;5014015;28;46893;-88
2022/04/07 06:25:14;;;;;;;;;4.00;0.00;;;;;13.03;100.00;99050.44;5024846;28;45331;-88
2022/04/07 06:27:44;;;;;;;;;1.00;0.50;;;;;13.05;100.00;99052.19;5028081;28;45330;-84
2022/04/07 06:30:15;;;;;;;;;0.00;0.00;;;;;13.05;100.00;99035.72;5022121;28;45638;-87
2022/04/07 06:32:42;;;;;;;;;2.50;0.50;;;;;12.98;100.00;99060.78;5031000;28;45709;-83
2022/04/07 06:35:09;;;;;;;;;1.75;1.00;;;;;12.97;100.00;99048.66;5024382;28;45712;-88
2022/04/07 06:37:58;;;;;;;;;1.50;1.25;;;;;12.94;100.00;99027.88;5032190;28;45364;-85
2022/04/07 06:40:26;;;;;;;;;1.25;0.25;;;;;12.99;100.00;99006.28;5022539;28;45243;-82
2022/04/07 06:42:54;;;;;;;;;1.00;1.00;;;;;12.95;100.00;99029.63;5017768;28;45432;-82
2022/04/07 06:45:20;;;;;;;;;1.75;1.00;;;;;12.90;100.00;99029.59;5017459;28;45652;-82
2022/04/07 06:47:46;;;;;;;;;1.00;0.00;;;;;12.92;100.00;99040.84;5012734;28;45245;-80
2022/04/07 06:50:15;;;;;;;;;2.50;1.00;;;;;12.96;100.00;99052.13;5018539;28;45255;-83
2022/04/07 06:52:41;;;;;;;;;0.00;0.00;;;;;12.99;100.00;99024.47;4999422;28;47075;-83
2022/04/07 06:55:08;;;;;;;;;3.00;1.00;;;;;13.04;100.00;99001.09;5017252;28;45883;-83
2022/04/07 06:57:54;;;;;;;;;2.00;1.00;;;;;13.09;100.00;99037.50;5020247;28;45353;-82
2022/04/07 07:00:22;;;;;;;;;1.75;1.00;;;;;13.08;100.00;98987.25;4998379;28;45568;-82
2022/04/07 07:02:49;;;;;;;;;0.00;0.00;;;;;13.12;100.00;98995.94;4997380;28;45551;-82
2022/04/07 07:05:14;;;;;;;;;2.00;0.00;;;;;13.16;100.00;98988.19;5008213;28;45485;-83
2022/04/07 07:07:41;;;;;;;;;1.00;1.00;;;;;13.21;100.00;98993.41;5017381;28;45324;-82
2022/04/07 07:10:07;;;;;;;;;0.50;0.50;;;;;13.23;100.00;98994.25;5017512;28;46818;-80
2022/04/07 07:12:33;;;;;;;;;1.00;1.00;;;;;13.29;100.00;98973.50;5017651;28;45915;-81
2022/04/07 07:15:00;;;;;;;;;1.00;1.00;;;;;13.33;100.00;98979.56;5011121;28;45314;-79
2022/04/07 07:17:33;;;;;;;;;0.00;0.00;;;;;13.37;100.00;98996.94;5017080;28;45630;-81
2022/04/07 07:20:05;;;;;;;;;0.00;0.00;;;;;13.35;100.00;99001.25;5016752;28;45416;-82
2022/04/07 07:22:31;;;;;;;;;3.00;1.00;;;;;13.35;100.00;99013.34;5016470;28;45903;-81
2022/04/07 07:24:57;;;;;;;;;1.00;1.00;;;;;13.37;100.00;98981.34;5019853;28;45707;-82
2022/04/07 07:27:23;;;;;;;;;0.50;0.50;;;;;13.38;100.00;99010.78;5017546;28;45570;-85
2022/04/07 07:29:49;;;;;;;;;1.00;0.50;;;;;13.40;100.00;98976.16;5001214;28;45828;-88
2022/04/07 07:32:15;;;;;;;;;0.00;0.00;;;;;13.40;100.00;98994.34;5011086;28;45400;-92
2022/04/07 07:34:40;;;;;;;;;0.00;0.00;;;;;13.36;100.00;98966.59;5022318;28;46598;-92
2022/04/07 07:37:06;;;;;;;;;1.25;1.00;;;;;13.36;100.00;98983.91;5023145;28;45427;-86
2022/04/07 07:39:34;;;;;;;;;1.50;0.75;;;;;13.41;100.00;99000.44;5021041;28;45422;-86
2022/04/07 07:42:00;;;;;;;;;0.00;0.00;;;;;13.46;100.00;98973.59;5017729;28;46320;-85
2022/04/07 07:44:26;;;;;;;;;0.00;0.00;;;;;13.55;100.00;98985.72;5018229;28;45880;-79
2022/04/07 07:46:51;;;;;;;;;0.00;0.00;;;;;13.66;100.00;98962.38;5022535;28;45470;-83
2022/04/07 07:49:17;;;;;;;;;0.00;0.00;;;;;13.75;100.00;98965.00;5004971;28;45297;-78
2022/04/07 07:51:43;;;;;;;;;1.00;1.00;;;;;13.82;100.00;98960.66;4994448;28;46982;-80
2022/04/07 07:54:08;;;;;;;;;3.00;1.00;;;;;13.83;100.00;98952.00;5019033;28;45345;-82
2022/04/07 07:56:34;;;;;;;;;0.75;0.75;;;;;13.84;100.00;98943.34;5015192;28;45817;-82
2022/04/07 07:59:00;;;;;;;;;1.00;0.00;;;;;13.85;100.00;98971.09;5016279;28;45658;-79
2022/04/07 08:01:26;;;;;;;;;2.00;2.00;;;;;13.91;100.00;98965.88;5020263;28;45881;-81
2022/04/07 08:03:52;;;;;;;;;0.00;0.00;;;;;13.96;100.00;98965.88;5031728;28;45729;-91
2022/04/07 08:06:18;;;;;;;;;0.00;0.00;;;;;14.01;100.00;98960.69;5044384;28;45799;-88
2022/04/07 08:08:44;;;;;;;;;0.00;0.00;;;;;14.05;100.00;98947.66;5036786;28;45413;-84
2022/04/07 08:11:10;;;;;;;;;1.00;0.00;;;;;14.09;100.00;98969.38;5014490;28;46987;-83
2022/04/07 08:13:36;;;;;;;;;0.00;0.00;;;;;14.18;100.00;98937.28;5001074;28;46185;-84
2022/04/07 08:16:02;;;;;;;;;0.00;0.00;;;;;14.19;100.00;98945.09;5026131;28;45367;-80
2022/04/07 08:18:27;;;;;;;;;2.00;0.00;;;;;14.22;100.00;98952.88;5001202;28;45333;-83
2022/04/07 08:20:53;;;;;;;;;1.00;0.00;;;;;14.23;100.00;98952.00;5022850;28;46212;-84
2022/04/07 08:23:19;;;;;;;;;0.50;0.50;;;;;14.27;100.00;98968.50;5019520;28;45274;-82
2022/04/07 08:25:44;;;;;;;;;0.50;0.00;;;;;14.27;100.00;98947.69;5016463;28;45253;-88
2022/04/07 08:28:10;;;;;;;;;0.00;0.00;;;;;14.32;100.00;98958.09;5025415;28;45337;-78
2022/04/07 08:30:36;;;;;;;;;0.00;0.00;;;;;14.38;100.00;98953.75;5028598;28;47033;-80
2022/04/07 08:33:04;;;;;;;;;0.00;0.00;;;;;14.45;100.00;98928.56;5000787;28;45630;-85
2022/04/07 08:35:30;;;;;;;;;1.00;0.00;;;;;14.55;100.00;98932.88;5018214;28;45428;-79
2022/04/07 08:37:56;;;;;;;;;0.00;0.00;;;;;14.67;100.00;98944.19;5009022;28;45545;-83
2022/04/07 08:40:22;;;;;;;;;0.00;0.00;;;;;14.72;100.00;98941.56;5036373;28;45314;-84
2022/04/07 08:42:48;;;;;;;;;0.00;0.00;;;;;14.77;100.00;98919.84;5020657;28;45365;-80
2022/04/07 08:45:14;;;;;;;;;0.00;0.00;;;;;14.84;100.00;98960.66;5023111;28;45365;-83
2022/04/07 08:47:41;;;;;;;;;0.00;0.00;;;;;14.93;100.00;98961.50;5008763;28;45214;-82
2022/04/07 08:50:07;;;;;;;;;0.00;0.00;;;;;14.94;100.00;98942.41;5022490;28;45795;-83
2022/04/07 08:52:34;;;;;;;;;0.00;0.00;;;;;14.99;100.00;98932.81;5014205;28;45737;-86
2022/04/07 08:55:00;;;;;;;;;0.00;0.00;;;;;15.06;100.00;98933.66;5014665;28;45508;-83
2022/04/07 08:57:30;;;;;;;;;0.00;0.00;;;;;15.11;100.00;98934.53;5015726;28;44837;-86
2022/04/07 09:00:01;;;;;;;;;0.00;0.00;;;;;15.20;100.00;98947.50;5015990;28;45538;-83
2022/04/07 09:02:27;;;;;;;;;0.00;0.00;;;;;15.23;100.00;98964.88;5017316;28;45336;-84
2022/04/07 09:05:00;;;;;;;;;0.00;0.00;;;;;15.25;100.00;98922.28;5016061;28;45545;-84
2022/04/07 09:07:33;;;;;;;;;0.00;0.00;;;;;15.31;100.00;98944.84;4998201;28;45958;-87
2022/04/07 09:10:00;;;;;;;;;0.00;0.00;;;;;15.35;100.00;98956.13;5016515;28;45682;-87
2022/04/07 09:12:26;;;;;;;;;0.00;0.00;;;;;15.38;100.00;98932.66;5007521;28;45688;-85
2022/04/07 09:14:59;;;;;;;;;0.00;0.00;;;;;15.41;100.00;98933.50;5020801;28;45300;-89
2022/04/07 09:17:30;;;;;;;;;0.00;0.00;;;;;15.48;100.00;98940.44;5007407;28;45442;-88
2022/04/07 09:19:56;;;;;;;;;0.00;0.00;;;;;15.46;100.00;98952.59;5018477;28;45274;-79
2022/04/07 09:22:30;;;;;;;;;0.00;0.00;;;;;15.55;100.00;98953.41;5001999;28;45567;-80
2022/04/07 09:24:58;;;;;;;;;0.00;0.00;;;;;15.59;100.00;98927.31;5023195;28;45284;-78
2022/04/07 09:27:23;;;;;;;;;0.00;0.00;;;;;15.57;100.00;98959.50;5022844;28;45347;-84
2022/04/07 09:29:54;;;;;;;;;0.00;0.00;;;;;15.60;100.00;98936.00;5018569;28;46478;-85
2022/04/07 09:32:25;;;;;;;;;0.00;0.00;;;;;15.54;100.00;98964.72;5022149;28;45415;-89
2022/04/07 09:34:56;;;;;;;;;0.00;0.00;;;;;15.56;100.00;98944.72;5023076;28;45423;-85
2022/04/07 09:37:23;;;;;;;;;0.00;0.00;;;;;15.61;100.00;98948.16;5020366;28;45716;-82
2022/04/07 09:39:50;;;;;;;;;0.00;0.00;;;;;15.68;100.00;98970.75;5018865;28;46223;-86
2022/04/07 09:42:22;;;;;;;;;0.00;0.00;;;;;15.82;100.00;98967.19;5019353;28;45837;-86
2022/04/07 09:44:53;;;;;;;;;0.00;0.00;;;;;15.80;100.00;98959.34;5026402;28;45515;-81
2022/04/07 09:47:20;;;;;;;;;1.00;0.00;;;;;15.79;100.00;98961.09;5028114;28;45511;-82
2022/04/07 09:49:48;;;;;;;;;0.00;0.00;;;;;15.78;100.00;98984.59;5025282;28;45467;-84
2022/04/07 09:52:14;;;;;;;;;0.00;0.00;;;;;15.82;100.00;98983.69;5019834;28;45589;-84
2022/04/07 09:54:43;;;;;;;;;0.00;0.00;;;;;15.77;100.00;99015.03;5014793;28;45321;-87
2022/04/07 09:57:12;;;;;;;;;0.75;0.00;;;;;15.74;100.00;99017.66;5016338;28;45168;-86
2022/04/07 09:59:42;;;;;;;;;0.00;0.00;;;;;15.69;100.00;98998.56;5005636;28;45970;-85
2022/04/07 10:02:08;;;;;;;;;0.00;0.00;;;;;15.61;100.00;98990.78;5016095;28;45670;-88
2022/04/07 10:04:34;;;;;;;;;0.00;0.00;;;;;15.55;100.00;99024.69;5017566;28;45283;-89
2022/04/07 10:07:04;;;;;;;;;0.50;0.50;;;;;15.32;100.00;99056.09;5017923;28;45161;-82
2022/04/07 10:09:30;;;;;;;;;2.00;0.00;;;;;15.08;100.00;99057.88;5014153;28;45373;-83
2022/04/07 10:11:58;;;;;;;;;0.25;0.25;;;;;15.01;100.00;99090.03;5021491;28;45439;-78
2022/04/07 10:14:25;;;;;;;;;1.00;0.00;;;;;15.01;100.00;99087.44;5013588;28;45372;-81
2022/04/07 10:16:50;;;;;;;;;0.00;0.00;;;;;15.06;100.00;99069.19;5016871;28;46711;-81
2022/04/07 10:19:26;;;;;;;;;0.00;0.00;;;;;15.07;100.00;99057.88;5016584;28;45994;-81
2022/04/07 10:22:13;;;;;;;;;0.00;0.00;;;;;15.19;100.00;99063.09;5011598;28;45573;-83
2022/04/07 10:24:53;;;;;;;;;0.00;0.00;;;;;15.26;100.00;99074.38;5016997;28;45538;-81
2022/04/07 10:27:23;;;;;;;;;0.00;0.00;;;;;15.22;100.00;99096.97;5017452;28;45355;-82
2022/04/07 10:30:02;;;;;;;;;0.00;0.00;;;;;15.14;100.00;99099.59;5020600;28;46285;-81
2022/04/07 10:32:38;;;;;;;;;0.75;0.00;;;;;15.08;100.00;99096.97;5008459;28;45397;-83
2022/04/07 10:35:04;;;;;;;;;0.00;0.00;;;;;15.13;100.00;99123.03;5014726;28;45486;-80
2022/04/07 10:37:31;;;;;;;;;0.00;0.00;;;;;15.13;100.00;99102.19;5015178;28;45381;-81
2022/04/07 10:39:56;;;;;;;;;0.00;0.00;;;;;15.10;100.00;99129.13;5008565;28;46610;-82
2022/04/07 10:42:59;;;;;;;;;0.00;0.00;;;;;15.08;100.00;99119.56;5001449;28;45493;-82
2022/04/07 10:45:34;;;;;;;;;0.00;0.00;;;;;14.97;100.00;99153.44;5006462;28;45247;-82
2022/04/07 10:48:28;;;;;;;;;0.00;0.00;;;;;14.91;100.00;99127.41;5017309;28;45523;-83
2022/04/07 10:50:55;;;;;;;;;0.00;0.00;;;;;14.91;100.00;99130.00;5017420;28;45536;-81
2022/04/07 10:53:28;;;;;;;;;0.00;0.00;;;;;14.99;100.00;99133.47;5018566;28;45381;-81
2022/04/07 10:55:56;;;;;;;;;2.00;1.00;;;;;15.11;100.00;99128.25;5019824;28;45447;-83
2022/04/07 10:58:41;;;;;;;;;1.75;1.00;;;;;15.21;100.00;99141.28;5019321;28;45403;-82
2022/04/07 11:01:16;;;;;;;;;3.00;0.25;;;;;15.30;100.00;99131.72;4999302;28;45497;-80
2022/04/07 11:04:17;;;;;;;;;0.00;0.00;;;;;15.33;100.00;99172.56;4999763;28;45599;-82
2022/04/07 11:07:20;;;;;;;;;0.00;0.00;;;;;15.27;100.00;99169.97;5002647;28;45298;-83
2022/04/07 11:09:56;;;;;;;;;0.00;0.00;;;;;15.25;100.00;99156.91;5019529;28;45325;-83
2022/04/07 11:12:34;;;;;;;;;0.00;0.00;;;;;15.21;100.00;99165.63;5017898;28;45976;-82
2022/04/07 11:15:02;;;;;;;;;0.00;0.00;;;;;15.23;100.00;99140.41;5016328;28;45784;-80
2022/04/07 11:17:48;;;;;;;;;0.00;0.00;;;;;15.30;100.00;99180.38;5017213;28;45328;-81
2022/04/07 11:20:21;;;;;;;;;0.00;0.00;;;;;15.26;100.00;99163.88;5017174;28;45445;-83
2022/04/07 11:22:52;;;;;;;;;0.00;0.00;;;;;15.32;100.00;99163.88;5016855;28;46252;-83
2022/04/07 11:25:28;;;;;;;;;0.00;0.00;;;;;15.37;100.00;99196.88;5016850;28;45600;-83
2022/04/07 11:28:14;;;;;;;;;1.00;0.00;;;;;15.47;100.00;99209.03;5017137;28;45433;-82